sensor_id;sensor_type;location;lat;lon;timestamp;P1;durP1;ratioP1;P2;durP2;ratioP2
76591;SDS011;65481;47.600;19.682;2023-02-22T00:02:17;7.47;;;4.22;;
76591;SDS011;65481;47.600;19.682;2023-02-22T00:07:26;6.78;;;4.40;;
76591;SDS011;65481;47.600;19.682;2023-02-22T00:12:26;5.38;;;4.35;;
76591;SDS011;65481;47.600;19.682;2023-02-22T00:17:28;6.20;;;4.60;;
76591;SDS011;65481;47.600;19.682;2023-02-22T00:22:29;8.80;;;5.10;;
76591;SDS011;65481;47.600;19.682;2023-02-22T00:27:30;7.32;;;5.95;;
76591;SDS011;65481;47.600;19.682;2023-02-22T00:32:30;7.97;;;4.88;;
76591;SDS011;65481;47.600;19.682;2023-02-22T00:37:31;6.13;;;4.47;;
76591;SDS011;65481;47.600;19.682;2023-02-22T00:42:32;7.00;;;5.00;;
76591;SDS011;65481;47.600;19.682;2023-02-22T00:47:33;6.47;;;4.90;;
76591;SDS011;65481;47.600;19.682;2023-02-22T00:52:34;7.30;;;4.75;;
76591;SDS011;65481;47.600;19.682;2023-02-22T00:57:36;6.95;;;4.55;;
76591;SDS011;65481;47.600;19.682;2023-02-22T01:02:40;7.90;;;4.97;;
76591;SDS011;65481;47.600;19.682;2023-02-22T01:07:42;8.60;;;5.38;;
76591;SDS011;65481;47.600;19.682;2023-02-22T01:12:43;6.75;;;4.72;;
76591;SDS011;65481;47.600;19.682;2023-02-22T01:17:43;8.77;;;5.40;;
76591;SDS011;65481;47.600;19.682;2023-02-22T01:22:45;7.05;;;5.07;;
76591;SDS011;65481;47.600;19.682;2023-02-22T01:27:46;9.88;;;5.43;;
76591;SDS011;65481;47.600;19.682;2023-02-22T01:32:49;8.00;;;6.30;;
76591;SDS011;65481;47.600;19.682;2023-02-22T01:37:50;9.77;;;6.43;;
76591;SDS011;65481;47.600;19.682;2023-02-22T01:42:52;7.85;;;4.82;;
76591;SDS011;65481;47.600;19.682;2023-02-22T01:48:01;7.90;;;5.25;;
76591;SDS011;65481;47.600;19.682;2023-02-22T01:53:25;7.43;;;5.18;;
76591;SDS011;65481;47.600;19.682;2023-02-22T01:58:32;6.43;;;4.68;;
76591;SDS011;65481;47.600;19.682;2023-02-22T02:03:36;7.53;;;5.00;;
76591;SDS011;65481;47.600;19.682;2023-02-22T02:08:44;7.63;;;5.78;;
76591;SDS011;65481;47.600;19.682;2023-02-22T02:13:51;12.60;;;6.05;;
76591;SDS011;65481;47.600;19.682;2023-02-22T02:18:54;8.25;;;5.40;;
76591;SDS011;65481;47.600;19.682;2023-02-22T02:40:18;10.70;;;6.22;;
76591;SDS011;65481;47.600;19.682;2023-02-22T02:45:26;12.57;;;7.18;;
76591;SDS011;65481;47.600;19.682;2023-02-22T02:50:31;13.77;;;6.35;;
76591;SDS011;65481;47.600;19.682;2023-02-22T02:55:36;11.38;;;6.68;;
76591;SDS011;65481;47.600;19.682;2023-02-22T03:00:38;7.18;;;5.32;;
76591;SDS011;65481;47.600;19.682;2023-02-22T03:16:16;8.02;;;5.45;;
76591;SDS011;65481;47.600;19.682;2023-02-22T03:27:00;7.68;;;5.55;;
76591;SDS011;65481;47.600;19.682;2023-02-22T03:32:10;9.10;;;5.90;;
76591;SDS011;65481;47.600;19.682;2023-02-22T03:37:17;11.23;;;7.60;;
76591;SDS011;65481;47.600;19.682;2023-02-22T03:42:22;11.77;;;8.20;;
76591;SDS011;65481;47.600;19.682;2023-02-22T03:47:29;9.85;;;7.03;;
76591;SDS011;65481;47.600;19.682;2023-02-22T03:52:34;8.85;;;6.22;;
76591;SDS011;65481;47.600;19.682;2023-02-22T03:57:36;8.50;;;5.90;;
76591;SDS011;65481;47.600;19.682;2023-02-22T04:02:40;8.82;;;6.25;;
76591;SDS011;65481;47.600;19.682;2023-02-22T04:07:41;9.48;;;5.88;;
76591;SDS011;65481;47.600;19.682;2023-02-22T04:12:41;8.32;;;5.78;;
76591;SDS011;65481;47.600;19.682;2023-02-22T04:17:42;10.85;;;5.75;;
76591;SDS011;65481;47.600;19.682;2023-02-22T04:22:44;8.40;;;6.05;;
76591;SDS011;65481;47.600;19.682;2023-02-22T04:27:46;10.32;;;6.60;;
76591;SDS011;65481;47.600;19.682;2023-02-22T04:32:46;8.95;;;6.75;;
76591;SDS011;65481;47.600;19.682;2023-02-22T04:37:47;9.35;;;6.30;;
76591;SDS011;65481;47.600;19.682;2023-02-22T04:42:48;11.38;;;6.70;;
76591;SDS011;65481;47.600;19.682;2023-02-22T04:47:49;12.55;;;6.80;;
76591;SDS011;65481;47.600;19.682;2023-02-22T04:52:49;9.35;;;6.22;;
76591;SDS011;65481;47.600;19.682;2023-02-22T04:57:50;13.98;;;8.40;;
76591;SDS011;65481;47.600;19.682;2023-02-22T05:02:50;11.82;;;7.63;;
76591;SDS011;65481;47.600;19.682;2023-02-22T05:07:51;12.75;;;8.75;;
76591;SDS011;65481;47.600;19.682;2023-02-22T05:12:52;16.00;;;9.63;;
76591;SDS011;65481;47.600;19.682;2023-02-22T05:17:52;14.18;;;8.70;;
76591;SDS011;65481;47.600;19.682;2023-02-22T05:22:53;13.35;;;8.57;;
76591;SDS011;65481;47.600;19.682;2023-02-22T05:27:59;14.68;;;8.38;;
76591;SDS011;65481;47.600;19.682;2023-02-22T05:33:02;11.65;;;8.40;;
76591;SDS011;65481;47.600;19.682;2023-02-22T05:38:03;11.13;;;7.57;;
76591;SDS011;65481;47.600;19.682;2023-02-22T05:43:04;13.13;;;8.60;;
76591;SDS011;65481;47.600;19.682;2023-02-22T05:48:04;18.77;;;12.00;;
76591;SDS011;65481;47.600;19.682;2023-02-22T05:53:05;20.33;;;11.55;;
76591;SDS011;65481;47.600;19.682;2023-02-22T05:58:06;17.15;;;10.77;;
76591;SDS011;65481;47.600;19.682;2023-02-22T06:03:07;25.80;;;13.05;;
76591;SDS011;65481;47.600;19.682;2023-02-22T06:08:09;109.43;;;63.65;;
76591;SDS011;65481;47.600;19.682;2023-02-22T06:13:09;43.40;;;25.33;;
76591;SDS011;65481;47.600;19.682;2023-02-22T06:18:10;28.52;;;20.55;;
76591;SDS011;65481;47.600;19.682;2023-02-22T06:23:10;17.15;;;11.15;;
76591;SDS011;65481;47.600;19.682;2023-02-22T06:28:11;15.65;;;8.75;;
76591;SDS011;65481;47.600;19.682;2023-02-22T06:33:11;15.27;;;9.70;;
76591;SDS011;65481;47.600;19.682;2023-02-22T06:38:19;16.73;;;11.25;;
76591;SDS011;65481;47.600;19.682;2023-02-22T06:43:21;20.35;;;12.00;;
76591;SDS011;65481;47.600;19.682;2023-02-22T06:48:23;16.70;;;10.25;;
76591;SDS011;65481;47.600;19.682;2023-02-22T06:53:24;12.55;;;9.23;;
76591;SDS011;65481;47.600;19.682;2023-02-22T06:58:24;15.10;;;9.82;;
76591;SDS011;65481;47.600;19.682;2023-02-22T07:03:26;11.93;;;8.05;;
76591;SDS011;65481;47.600;19.682;2023-02-22T07:08:27;11.68;;;7.78;;
76591;SDS011;65481;47.600;19.682;2023-02-22T07:13:28;37.55;;;21.50;;
76591;SDS011;65481;47.600;19.682;2023-02-22T07:18:28;36.55;;;19.92;;
76591;SDS011;65481;47.600;19.682;2023-02-22T07:23:29;15.63;;;10.35;;
76591;SDS011;65481;47.600;19.682;2023-02-22T07:28:29;8.50;;;7.13;;
76591;SDS011;65481;47.600;19.682;2023-02-22T07:33:30;9.13;;;6.78;;
76591;SDS011;65481;47.600;19.682;2023-02-22T07:38:30;12.52;;;9.13;;
76591;SDS011;65481;47.600;19.682;2023-02-22T07:43:31;11.13;;;8.75;;
76591;SDS011;65481;47.600;19.682;2023-02-22T07:48:32;14.48;;;8.73;;
76591;SDS011;65481;47.600;19.682;2023-02-22T07:53:32;12.68;;;7.00;;
76591;SDS011;65481;47.600;19.682;2023-02-22T07:58:33;9.07;;;5.43;;
76591;SDS011;65481;47.600;19.682;2023-02-22T08:03:34;11.23;;;4.40;;
76591;SDS011;65481;47.600;19.682;2023-02-22T08:08:36;10.30;;;5.40;;
76591;SDS011;65481;47.600;19.682;2023-02-22T08:13:37;11.27;;;4.85;;
76591;SDS011;65481;47.600;19.682;2023-02-22T08:18:38;10.38;;;4.80;;
76591;SDS011;65481;47.600;19.682;2023-02-22T08:23:40;10.73;;;5.28;;
76591;SDS011;65481;47.600;19.682;2023-02-22T08:28:40;8.05;;;4.15;;
76591;SDS011;65481;47.600;19.682;2023-02-22T08:33:40;11.48;;;3.55;;
76591;SDS011;65481;47.600;19.682;2023-02-22T08:38:41;8.27;;;3.25;;
76591;SDS011;65481;47.600;19.682;2023-02-22T08:43:42;8.48;;;3.50;;
76591;SDS011;65481;47.600;19.682;2023-02-22T08:48:49;9.30;;;4.13;;
76591;SDS011;65481;47.600;19.682;2023-02-22T08:53:50;10.20;;;4.47;;
76591;SDS011;65481;47.600;19.682;2023-02-22T08:58:52;9.82;;;3.90;;
76591;SDS011;65481;47.600;19.682;2023-02-22T09:03:53;10.00;;;4.03;;
76591;SDS011;65481;47.600;19.682;2023-02-22T09:08:55;10.27;;;3.90;;
76591;SDS011;65481;47.600;19.682;2023-02-22T09:13:55;8.07;;;4.60;;
76591;SDS011;65481;47.600;19.682;2023-02-22T09:18:56;8.55;;;4.25;;
76591;SDS011;65481;47.600;19.682;2023-02-22T09:23:57;9.55;;;3.65;;
76591;SDS011;65481;47.600;19.682;2023-02-22T09:28:57;9.10;;;4.40;;
76591;SDS011;65481;47.600;19.682;2023-02-22T09:33:58;9.13;;;3.92;;
76591;SDS011;65481;47.600;19.682;2023-02-22T09:38:59;8.18;;;4.25;;
76591;SDS011;65481;47.600;19.682;2023-02-22T09:49:36;9.48;;;4.03;;
76591;SDS011;65481;47.600;19.682;2023-02-22T09:54:43;7.15;;;4.22;;
76591;SDS011;65481;47.600;19.682;2023-02-22T09:59:58;12.43;;;4.40;;
76591;SDS011;65481;47.600;19.682;2023-02-22T10:05:14;9.07;;;4.53;;
76591;SDS011;65481;47.600;19.682;2023-02-22T10:10:21;9.52;;;3.83;;
76591;SDS011;65481;47.600;19.682;2023-02-22T10:25:37;8.57;;;4.15;;
76591;SDS011;65481;47.600;19.682;2023-02-22T10:30:40;9.43;;;4.93;;
76591;SDS011;65481;47.600;19.682;2023-02-22T10:35:45;10.80;;;4.07;;
76591;SDS011;65481;47.600;19.682;2023-02-22T10:40:56;8.30;;;3.75;;
76591;SDS011;65481;47.600;19.682;2023-02-22T10:46:03;10.53;;;5.07;;
76591;SDS011;65481;47.600;19.682;2023-02-22T10:51:07;10.52;;;4.15;;
76591;SDS011;65481;47.600;19.682;2023-02-22T10:56:13;9.32;;;3.80;;
76591;SDS011;65481;47.600;19.682;2023-02-22T11:01:32;7.15;;;3.70;;
76591;SDS011;65481;47.600;19.682;2023-02-22T11:06:37;7.78;;;3.97;;
76591;SDS011;65481;47.600;19.682;2023-02-22T11:11:40;12.18;;;4.10;;
76591;SDS011;65481;47.600;19.682;2023-02-22T11:16:46;8.70;;;4.05;;
76591;SDS011;65481;47.600;19.682;2023-02-22T11:21:51;8.77;;;4.03;;
76591;SDS011;65481;47.600;19.682;2023-02-22T11:26:58;9.15;;;3.90;;
76591;SDS011;65481;47.600;19.682;2023-02-22T11:32:03;8.40;;;3.55;;
76591;SDS011;65481;47.600;19.682;2023-02-22T11:37:14;7.13;;;3.90;;
76591;SDS011;65481;47.600;19.682;2023-02-22T11:42:28;8.02;;;3.58;;
76591;SDS011;65481;47.600;19.682;2023-02-22T11:47:29;10.45;;;4.00;;
76591;SDS011;65481;47.600;19.682;2023-02-22T11:52:32;7.50;;;4.03;;
76591;SDS011;65481;47.600;19.682;2023-02-22T12:24:19;15.02;;;8.32;;
76591;SDS011;65481;47.600;19.682;2023-02-22T12:29:26;13.85;;;8.25;;
76591;SDS011;65481;47.600;19.682;2023-02-22T12:39:48;8.40;;;3.70;;
76591;SDS011;65481;47.600;19.682;2023-02-22T12:44:57;14.43;;;8.55;;
76591;SDS011;65481;47.600;19.682;2023-02-22T12:50:11;11.00;;;6.28;;
76591;SDS011;65481;47.600;19.682;2023-02-22T12:55:23;6.93;;;3.85;;
76591;SDS011;65481;47.600;19.682;2023-02-22T13:00:27;19.77;;;10.13;;
76591;SDS011;65481;47.600;19.682;2023-02-22T13:05:35;10.63;;;5.28;;
76591;SDS011;65481;47.600;19.682;2023-02-22T13:32:03;14.88;;;7.45;;
76591;SDS011;65481;47.600;19.682;2023-02-22T13:42:26;11.40;;;3.78;;
76591;SDS011;65481;47.600;19.682;2023-02-22T13:53:09;12.32;;;4.88;;
76591;SDS011;65481;47.600;19.682;2023-02-22T13:58:13;19.23;;;10.30;;
76591;SDS011;65481;47.600;19.682;2023-02-22T14:13:21;11.05;;;5.18;;
76591;SDS011;65481;47.600;19.682;2023-02-22T14:18:26;10.75;;;6.53;;
76591;SDS011;65481;47.600;19.682;2023-02-22T14:23:40;12.52;;;5.50;;
76591;SDS011;65481;47.600;19.682;2023-02-22T14:34:16;10.88;;;5.88;;
76591;SDS011;65481;47.600;19.682;2023-02-22T14:49:48;17.08;;;7.90;;
76591;SDS011;65481;47.600;19.682;2023-02-22T14:54:54;20.15;;;8.48;;
76591;SDS011;65481;47.600;19.682;2023-02-22T15:00:06;30.20;;;12.80;;
76591;SDS011;65481;47.600;19.682;2023-02-22T15:05:19;21.20;;;9.43;;
76591;SDS011;65481;47.600;19.682;2023-02-22T15:15:23;18.20;;;8.73;;
76591;SDS011;65481;47.600;19.682;2023-02-22T15:20:24;13.75;;;6.97;;
76591;SDS011;65481;47.600;19.682;2023-02-22T15:25:26;41.28;;;19.10;;
76591;SDS011;65481;47.600;19.682;2023-02-22T15:30:31;26.77;;;12.25;;
76591;SDS011;65481;47.600;19.682;2023-02-22T15:35:33;21.65;;;10.43;;
76591;SDS011;65481;47.600;19.682;2023-02-22T15:40:33;38.95;;;20.08;;
76591;SDS011;65481;47.600;19.682;2023-02-22T15:45:34;26.98;;;16.30;;
76591;SDS011;65481;47.600;19.682;2023-02-22T15:56:09;20.42;;;9.57;;
76591;SDS011;65481;47.600;19.682;2023-02-22T16:01:14;28.75;;;12.32;;
76591;SDS011;65481;47.600;19.682;2023-02-22T16:06:31;21.88;;;13.60;;
76591;SDS011;65481;47.600;19.682;2023-02-22T16:11:35;20.23;;;12.33;;
76591;SDS011;65481;47.600;19.682;2023-02-22T16:16:40;17.90;;;11.43;;
76591;SDS011;65481;47.600;19.682;2023-02-22T16:21:49;20.80;;;12.10;;
76591;SDS011;65481;47.600;19.682;2023-02-22T16:32:05;14.10;;;5.60;;
76591;SDS011;65481;47.600;19.682;2023-02-22T16:37:16;17.08;;;8.30;;
76591;SDS011;65481;47.600;19.682;2023-02-22T16:42:21;25.45;;;10.70;;
76591;SDS011;65481;47.600;19.682;2023-02-22T16:47:24;19.45;;;9.18;;
76591;SDS011;65481;47.600;19.682;2023-02-22T16:52:25;24.45;;;9.52;;
76591;SDS011;65481;47.600;19.682;2023-02-22T16:57:27;16.48;;;8.13;;
76591;SDS011;65481;47.600;19.682;2023-02-22T17:02:31;15.18;;;8.10;;
76591;SDS011;65481;47.600;19.682;2023-02-22T17:07:31;25.08;;;15.80;;
76591;SDS011;65481;47.600;19.682;2023-02-22T17:12:32;19.45;;;10.10;;
76591;SDS011;65481;47.600;19.682;2023-02-22T17:17:32;14.95;;;7.53;;
76591;SDS011;65481;47.600;19.682;2023-02-22T17:22:33;17.40;;;7.75;;
76591;SDS011;65481;47.600;19.682;2023-02-22T17:27:34;48.13;;;41.53;;
76591;SDS011;65481;47.600;19.682;2023-02-22T17:32:35;22.40;;;13.05;;
76591;SDS011;65481;47.600;19.682;2023-02-22T17:37:37;32.67;;;25.30;;
76591;SDS011;65481;47.600;19.682;2023-02-22T17:42:37;17.40;;;9.13;;
76591;SDS011;65481;47.600;19.682;2023-02-22T17:47:39;14.82;;;6.72;;
76591;SDS011;65481;47.600;19.682;2023-02-22T17:52:42;14.27;;;6.63;;
76591;SDS011;65481;47.600;19.682;2023-02-22T17:57:43;14.77;;;7.47;;
76591;SDS011;65481;47.600;19.682;2023-02-22T18:02:44;15.25;;;8.00;;
76591;SDS011;65481;47.600;19.682;2023-02-22T18:07:45;21.13;;;8.13;;
76591;SDS011;65481;47.600;19.682;2023-02-22T18:12:46;19.48;;;9.20;;
76591;SDS011;65481;47.600;19.682;2023-02-22T18:17:48;19.42;;;7.10;;
76591;SDS011;65481;47.600;19.682;2023-02-22T18:22:49;16.50;;;8.30;;
76591;SDS011;65481;47.600;19.682;2023-02-22T18:27:50;21.20;;;9.18;;
76591;SDS011;65481;47.600;19.682;2023-02-22T18:32:52;131.07;;;70.30;;
76591;SDS011;65481;47.600;19.682;2023-02-22T18:37:53;186.82;;;128.13;;
76591;SDS011;65481;47.600;19.682;2023-02-22T18:42:54;89.32;;;63.10;;
76591;SDS011;65481;47.600;19.682;2023-02-22T18:47:55;73.93;;;57.63;;
76591;SDS011;65481;47.600;19.682;2023-02-22T18:52:55;35.08;;;21.83;;
76591;SDS011;65481;47.600;19.682;2023-02-22T18:57:56;19.45;;;10.90;;
76591;SDS011;65481;47.600;19.682;2023-02-22T19:02:59;23.63;;;13.20;;
76591;SDS011;65481;47.600;19.682;2023-02-22T19:08:00;23.65;;;10.88;;
76591;SDS011;65481;47.600;19.682;2023-02-22T19:13:01;28.35;;;11.25;;
76591;SDS011;65481;47.600;19.682;2023-02-22T19:18:02;24.55;;;12.05;;
76591;SDS011;65481;47.600;19.682;2023-02-22T19:23:03;24.08;;;11.63;;
76591;SDS011;65481;47.600;19.682;2023-02-22T19:28:09;24.15;;;11.18;;
76591;SDS011;65481;47.600;19.682;2023-02-22T19:33:10;19.60;;;10.40;;
76591;SDS011;65481;47.600;19.682;2023-02-22T19:38:12;19.23;;;9.65;;
76591;SDS011;65481;47.600;19.682;2023-02-22T19:43:14;18.88;;;7.95;;
76591;SDS011;65481;47.600;19.682;2023-02-22T19:48:15;13.57;;;7.90;;
76591;SDS011;65481;47.600;19.682;2023-02-22T19:53:18;17.20;;;9.10;;
76591;SDS011;65481;47.600;19.682;2023-02-22T19:58:18;19.17;;;9.73;;
76591;SDS011;65481;47.600;19.682;2023-02-22T20:03:19;14.70;;;8.50;;
76591;SDS011;65481;47.600;19.682;2023-02-22T20:08:23;17.63;;;8.30;;
76591;SDS011;65481;47.600;19.682;2023-02-22T20:13:25;14.05;;;7.35;;
76591;SDS011;65481;47.600;19.682;2023-02-22T20:18:26;15.18;;;8.98;;
76591;SDS011;65481;47.600;19.682;2023-02-22T20:23:28;17.00;;;8.15;;
76591;SDS011;65481;47.600;19.682;2023-02-22T20:28:29;14.77;;;7.50;;
76591;SDS011;65481;47.600;19.682;2023-02-22T20:33:30;19.73;;;7.78;;
76591;SDS011;65481;47.600;19.682;2023-02-22T20:38:31;16.30;;;8.45;;
76591;SDS011;65481;47.600;19.682;2023-02-22T20:43:32;20.77;;;9.07;;
76591;SDS011;65481;47.600;19.682;2023-02-22T20:48:34;16.92;;;7.90;;
76591;SDS011;65481;47.600;19.682;2023-02-22T20:53:36;16.50;;;8.43;;
76591;SDS011;65481;47.600;19.682;2023-02-22T20:58:41;17.17;;;8.00;;
76591;SDS011;65481;47.600;19.682;2023-02-22T21:03:43;14.93;;;7.20;;
76591;SDS011;65481;47.600;19.682;2023-02-22T21:08:44;17.48;;;8.52;;
76591;SDS011;65481;47.600;19.682;2023-02-22T21:13:50;15.23;;;8.00;;
76591;SDS011;65481;47.600;19.682;2023-02-22T21:18:52;20.58;;;8.10;;
76591;SDS011;65481;47.600;19.682;2023-02-22T21:23:55;24.05;;;8.55;;
76591;SDS011;65481;47.600;19.682;2023-02-22T21:28:57;18.08;;;8.25;;
76591;SDS011;65481;47.600;19.682;2023-02-22T21:34:03;17.75;;;7.80;;
76591;SDS011;65481;47.600;19.682;2023-02-22T21:39:04;18.40;;;7.57;;
76591;SDS011;65481;47.600;19.682;2023-02-22T21:44:17;16.60;;;7.68;;
76591;SDS011;65481;47.600;19.682;2023-02-22T21:49:18;16.83;;;6.80;;
76591;SDS011;65481;47.600;19.682;2023-02-22T21:54:22;16.02;;;7.07;;
76591;SDS011;65481;47.600;19.682;2023-02-22T21:59:22;13.95;;;6.68;;
76591;SDS011;65481;47.600;19.682;2023-02-22T22:04:24;16.30;;;6.80;;
76591;SDS011;65481;47.600;19.682;2023-02-22T22:09:27;15.25;;;7.07;;
76591;SDS011;65481;47.600;19.682;2023-02-22T22:14:32;16.15;;;7.53;;
76591;SDS011;65481;47.600;19.682;2023-02-22T22:19:34;16.85;;;7.72;;
76591;SDS011;65481;47.600;19.682;2023-02-22T22:24:39;20.27;;;7.05;;
76591;SDS011;65481;47.600;19.682;2023-02-22T22:29:44;17.13;;;7.53;;
76591;SDS011;65481;47.600;19.682;2023-02-22T22:34:45;16.52;;;6.93;;
76591;SDS011;65481;47.600;19.682;2023-02-22T22:39:45;17.63;;;7.45;;
76591;SDS011;65481;47.600;19.682;2023-02-22T22:44:46;19.08;;;8.10;;
76591;SDS011;65481;47.600;19.682;2023-02-22T22:49:49;23.55;;;8.02;;
76591;SDS011;65481;47.600;19.682;2023-02-22T22:54:49;15.40;;;6.85;;
76591;SDS011;65481;47.600;19.682;2023-02-22T22:59:50;13.10;;;6.90;;
76591;SDS011;65481;47.600;19.682;2023-02-22T23:04:51;15.40;;;7.30;;
76591;SDS011;65481;47.600;19.682;2023-02-22T23:09:51;17.02;;;7.43;;
76591;SDS011;65481;47.600;19.682;2023-02-22T23:14:52;19.35;;;7.30;;
76591;SDS011;65481;47.600;19.682;2023-02-22T23:19:54;16.83;;;7.22;;
76591;SDS011;65481;47.600;19.682;2023-02-22T23:24:55;15.90;;;7.32;;
76591;SDS011;65481;47.600;19.682;2023-02-22T23:29:57;19.15;;;6.70;;
76591;SDS011;65481;47.600;19.682;2023-02-22T23:34:58;16.48;;;7.00;;
76591;SDS011;65481;47.600;19.682;2023-02-22T23:40:00;18.13;;;6.68;;
76591;SDS011;65481;47.600;19.682;2023-02-22T23:45:01;18.33;;;7.45;;
76591;SDS011;65481;47.600;19.682;2023-02-22T23:50:01;16.30;;;6.40;;
76591;SDS011;65481;47.600;19.682;2023-02-22T23:55:05;14.50;;;7.20;;
